sensor_id;sensor_type;location;lat;lon;timestamp;P1;durP1;ratioP1;P2;durP2;ratioP2
74926;SDS011;63488;48.092;-1.640;2023-03-01T00:01:46;11.10;;;9.88;;
74926;SDS011;63488;48.092;-1.640;2023-03-01T00:04:11;12.23;;;10.93;;
74926;SDS011;63488;48.092;-1.640;2023-03-01T00:06:36;11.30;;;10.10;;
74926;SDS011;63488;48.092;-1.640;2023-03-01T00:09:02;11.65;;;10.45;;
74926;SDS011;63488;48.092;-1.640;2023-03-01T00:11:28;11.77;;;10.57;;
74926;SDS011;63488;48.092;-1.640;2023-03-01T00:13:55;11.32;;;10.23;;
74926;SDS011;63488;48.092;-1.640;2023-03-01T00:16:22;10.68;;;9.57;;
74926;SDS011;63488;48.092;-1.640;2023-03-01T00:18:48;11.68;;;10.13;;
74926;SDS011;63488;48.092;-1.640;2023-03-01T00:21:13;11.82;;;10.63;;
74926;SDS011;63488;48.092;-1.640;2023-03-01T00:23:39;11.45;;;10.35;;
74926;SDS011;63488;48.092;-1.640;2023-03-01T00:26:09;12.27;;;10.20;;
74926;SDS011;63488;48.092;-1.640;2023-03-01T00:28:35;10.88;;;9.77;;
74926;SDS011;63488;48.092;-1.640;2023-03-01T00:31:04;11.20;;;10.00;;
74926;SDS011;63488;48.092;-1.640;2023-03-01T00:33:30;10.98;;;9.95;;
74926;SDS011;63488;48.092;-1.640;2023-03-01T00:35:57;11.90;;;10.70;;
74926;SDS011;63488;48.092;-1.640;2023-03-01T00:38:22;11.30;;;9.55;;
74926;SDS011;63488;48.092;-1.640;2023-03-01T00:40:48;11.02;;;9.90;;
74926;SDS011;63488;48.092;-1.640;2023-03-01T00:43:13;10.80;;;9.77;;
74926;SDS011;63488;48.092;-1.640;2023-03-01T00:45:39;11.98;;;9.90;;
74926;SDS011;63488;48.092;-1.640;2023-03-01T00:48:04;10.23;;;9.23;;
74926;SDS011;63488;48.092;-1.640;2023-03-01T00:50:30;11.63;;;10.43;;
74926;SDS011;63488;48.092;-1.640;2023-03-01T00:52:55;11.98;;;10.82;;
74926;SDS011;63488;48.092;-1.640;2023-03-01T00:55:21;10.73;;;9.52;;
74926;SDS011;63488;48.092;-1.640;2023-03-01T00:57:46;11.75;;;10.48;;
74926;SDS011;63488;48.092;-1.640;2023-03-01T01:00:12;11.45;;;10.23;;
74926;SDS011;63488;48.092;-1.640;2023-03-01T01:02:37;10.57;;;9.45;;
74926;SDS011;63488;48.092;-1.640;2023-03-01T01:05:03;11.38;;;10.18;;
74926;SDS011;63488;48.092;-1.640;2023-03-01T01:07:28;12.02;;;10.75;;
74926;SDS011;63488;48.092;-1.640;2023-03-01T01:09:54;10.88;;;9.88;;
74926;SDS011;63488;48.092;-1.640;2023-03-01T01:12:19;11.70;;;10.50;;
74926;SDS011;63488;48.092;-1.640;2023-03-01T01:14:44;13.63;;;10.75;;
74926;SDS011;63488;48.092;-1.640;2023-03-01T01:17:11;10.65;;;9.65;;
74926;SDS011;63488;48.092;-1.640;2023-03-01T01:19:36;13.00;;;10.43;;
74926;SDS011;63488;48.092;-1.640;2023-03-01T01:22:02;11.30;;;10.10;;
74926;SDS011;63488;48.092;-1.640;2023-03-01T01:24:28;11.27;;;10.07;;
74926;SDS011;63488;48.092;-1.640;2023-03-01T01:26:53;11.23;;;10.02;;
74926;SDS011;63488;48.092;-1.640;2023-03-01T01:29:19;11.40;;;10.20;;
74926;SDS011;63488;48.092;-1.640;2023-03-01T01:31:44;12.20;;;10.07;;
74926;SDS011;63488;48.092;-1.640;2023-03-01T01:34:13;11.23;;;10.13;;
74926;SDS011;63488;48.092;-1.640;2023-03-01T01:36:39;11.15;;;10.05;;
74926;SDS011;63488;48.092;-1.640;2023-03-01T01:39:04;11.38;;;10.20;;
74926;SDS011;63488;48.092;-1.640;2023-03-01T01:41:29;11.25;;;10.05;;
74926;SDS011;63488;48.092;-1.640;2023-03-01T01:51:49;11.45;;;10.27;;
74926;SDS011;63488;48.092;-1.640;2023-03-01T01:54:22;11.70;;;10.18;;
74926;SDS011;63488;48.092;-1.640;2023-03-01T01:56:50;13.00;;;10.48;;
74926;SDS011;63488;48.092;-1.640;2023-03-01T01:59:17;11.70;;;10.60;;
74926;SDS011;63488;48.092;-1.640;2023-03-01T02:01:43;11.70;;;10.00;;
74926;SDS011;63488;48.092;-1.640;2023-03-01T02:04:08;12.38;;;10.38;;
74926;SDS011;63488;48.092;-1.640;2023-03-01T02:06:36;11.70;;;10.35;;
74926;SDS011;63488;48.092;-1.640;2023-03-01T02:09:11;10.63;;;9.52;;
74926;SDS011;63488;48.092;-1.640;2023-03-01T02:11:37;10.65;;;9.57;;
74926;SDS011;63488;48.092;-1.640;2023-03-01T02:14:03;11.20;;;10.10;;
74926;SDS011;63488;48.092;-1.640;2023-03-01T02:16:28;10.73;;;9.48;;
74926;SDS011;63488;48.092;-1.640;2023-03-01T02:18:54;11.27;;;9.98;;
74926;SDS011;63488;48.092;-1.640;2023-03-01T02:23:52;11.02;;;9.52;;
74926;SDS011;63488;48.092;-1.640;2023-03-01T02:26:23;10.73;;;9.63;;
74926;SDS011;63488;48.092;-1.640;2023-03-01T02:28:51;11.55;;;10.15;;
74926;SDS011;63488;48.092;-1.640;2023-03-01T02:31:18;11.35;;;9.95;;
74926;SDS011;63488;48.092;-1.640;2023-03-01T02:34:02;11.18;;;10.07;;
74926;SDS011;63488;48.092;-1.640;2023-03-01T02:36:36;10.77;;;9.68;;
74926;SDS011;63488;48.092;-1.640;2023-03-01T02:39:03;10.15;;;9.15;;
74926;SDS011;63488;48.092;-1.640;2023-03-01T02:41:30;12.52;;;10.07;;
74926;SDS011;63488;48.092;-1.640;2023-03-01T02:43:57;10.75;;;9.63;;
74926;SDS011;63488;48.092;-1.640;2023-03-01T02:46:23;10.80;;;9.70;;
74926;SDS011;63488;48.092;-1.640;2023-03-01T02:48:50;10.55;;;9.45;;
74926;SDS011;63488;48.092;-1.640;2023-03-01T02:54:08;11.05;;;9.50;;
74926;SDS011;63488;48.092;-1.640;2023-03-01T02:56:35;10.57;;;9.57;;
74926;SDS011;63488;48.092;-1.640;2023-03-01T02:59:00;11.00;;;9.77;;
74926;SDS011;63488;48.092;-1.640;2023-03-01T03:01:27;10.80;;;9.70;;
74926;SDS011;63488;48.092;-1.640;2023-03-01T03:04:03;10.80;;;9.70;;
74926;SDS011;63488;48.092;-1.640;2023-03-01T03:06:28;10.32;;;9.15;;
74926;SDS011;63488;48.092;-1.640;2023-03-01T03:08:54;10.38;;;9.38;;
74926;SDS011;63488;48.092;-1.640;2023-03-01T03:11:19;10.77;;;9.68;;
74926;SDS011;63488;48.092;-1.640;2023-03-01T03:13:45;10.38;;;8.98;;
74926;SDS011;63488;48.092;-1.640;2023-03-01T03:16:13;10.95;;;9.85;;
74926;SDS011;63488;48.092;-1.640;2023-03-01T03:18:38;10.48;;;9.38;;
74926;SDS011;63488;48.092;-1.640;2023-03-01T03:21:04;10.20;;;9.20;;
74926;SDS011;63488;48.092;-1.640;2023-03-01T03:23:32;9.75;;;8.75;;
74926;SDS011;63488;48.092;-1.640;2023-03-01T03:25:57;10.02;;;9.02;;
74926;SDS011;63488;48.092;-1.640;2023-03-01T03:28:23;10.32;;;8.63;;
74926;SDS011;63488;48.092;-1.640;2023-03-01T03:30:48;9.75;;;8.75;;
74926;SDS011;63488;48.092;-1.640;2023-03-01T03:33:14;10.15;;;8.60;;
74926;SDS011;63488;48.092;-1.640;2023-03-01T03:35:41;9.95;;;8.80;;
74926;SDS011;63488;48.092;-1.640;2023-03-01T03:38:07;9.77;;;8.77;;
74926;SDS011;63488;48.092;-1.640;2023-03-01T03:40:41;9.48;;;8.50;;
74926;SDS011;63488;48.092;-1.640;2023-03-01T03:43:10;9.15;;;8.25;;
74926;SDS011;63488;48.092;-1.640;2023-03-01T03:45:36;9.80;;;8.30;;
74926;SDS011;63488;48.092;-1.640;2023-03-01T03:48:02;9.35;;;8.45;;
74926;SDS011;63488;48.092;-1.640;2023-03-01T03:50:27;9.80;;;8.40;;
74926;SDS011;63488;48.092;-1.640;2023-03-01T03:52:53;9.52;;;8.52;;
74926;SDS011;63488;48.092;-1.640;2023-03-01T03:55:18;9.50;;;8.57;;
74926;SDS011;63488;48.092;-1.640;2023-03-01T03:57:45;9.40;;;8.40;;
74926;SDS011;63488;48.092;-1.640;2023-03-01T04:00:14;9.75;;;8.25;;
74926;SDS011;63488;48.092;-1.640;2023-03-01T04:02:40;9.98;;;8.80;;
74926;SDS011;63488;48.092;-1.640;2023-03-01T04:05:06;9.60;;;8.32;;
74926;SDS011;63488;48.092;-1.640;2023-03-01T04:07:31;9.23;;;8.27;;
74926;SDS011;63488;48.092;-1.640;2023-03-01T04:09:57;10.10;;;8.68;;
74926;SDS011;63488;48.092;-1.640;2023-03-01T04:12:22;9.60;;;8.60;;
74926;SDS011;63488;48.092;-1.640;2023-03-01T04:14:48;9.80;;;8.90;;
74926;SDS011;63488;48.092;-1.640;2023-03-01T04:17:13;9.35;;;8.43;;
74926;SDS011;63488;48.092;-1.640;2023-03-01T04:19:38;10.10;;;8.50;;
74926;SDS011;63488;48.092;-1.640;2023-03-01T04:22:04;10.07;;;9.07;;
74926;SDS011;63488;48.092;-1.640;2023-03-01T04:24:34;9.85;;;8.85;;
74926;SDS011;63488;48.092;-1.640;2023-03-01T04:27:00;9.80;;;8.75;;
74926;SDS011;63488;48.092;-1.640;2023-03-01T04:29:25;11.48;;;9.18;;
74926;SDS011;63488;48.092;-1.640;2023-03-01T04:31:50;10.27;;;9.20;;
74926;SDS011;63488;48.092;-1.640;2023-03-01T04:34:15;9.68;;;8.65;;
74926;SDS011;63488;48.092;-1.640;2023-03-01T04:36:41;9.68;;;8.65;;
74926;SDS011;63488;48.092;-1.640;2023-03-01T04:39:06;10.40;;;9.40;;
74926;SDS011;63488;48.092;-1.640;2023-03-01T04:41:37;10.32;;;9.23;;
74926;SDS011;63488;48.092;-1.640;2023-03-01T04:44:03;9.80;;;8.85;;
74926;SDS011;63488;48.092;-1.640;2023-03-01T04:46:29;12.43;;;10.02;;
74926;SDS011;63488;48.092;-1.640;2023-03-01T04:48:54;11.38;;;9.68;;
74926;SDS011;63488;48.092;-1.640;2023-03-01T04:51:20;10.57;;;9.30;;
74926;SDS011;63488;48.092;-1.640;2023-03-01T04:53:45;10.68;;;9.43;;
74926;SDS011;63488;48.092;-1.640;2023-03-01T04:56:11;10.25;;;9.13;;
74926;SDS011;63488;48.092;-1.640;2023-03-01T04:58:38;10.77;;;9.02;;
74926;SDS011;63488;48.092;-1.640;2023-03-01T05:01:13;11.65;;;9.07;;
74926;SDS011;63488;48.092;-1.640;2023-03-01T05:03:46;9.95;;;9.02;;
74926;SDS011;63488;48.092;-1.640;2023-03-01T05:06:11;10.13;;;8.63;;
74926;SDS011;63488;48.092;-1.640;2023-03-01T05:08:37;11.45;;;9.18;;
74926;SDS011;63488;48.092;-1.640;2023-03-01T05:11:03;9.82;;;8.80;;
74926;SDS011;63488;48.092;-1.640;2023-03-01T05:13:28;10.13;;;9.13;;
74926;SDS011;63488;48.092;-1.640;2023-03-01T05:15:58;10.32;;;8.82;;
74926;SDS011;63488;48.092;-1.640;2023-03-01T05:18:25;9.50;;;8.45;;
74926;SDS011;63488;48.092;-1.640;2023-03-01T05:20:54;10.80;;;8.63;;
74926;SDS011;63488;48.092;-1.640;2023-03-01T05:23:21;10.52;;;9.27;;
74926;SDS011;63488;48.092;-1.640;2023-03-01T05:25:46;10.45;;;9.07;;
74926;SDS011;63488;48.092;-1.640;2023-03-01T05:28:12;9.90;;;8.88;;
74926;SDS011;63488;48.092;-1.640;2023-03-01T05:30:38;9.40;;;8.48;;
74926;SDS011;63488;48.092;-1.640;2023-03-01T05:33:04;10.55;;;8.40;;
74926;SDS011;63488;48.092;-1.640;2023-03-01T05:35:32;10.00;;;8.55;;
74926;SDS011;63488;48.092;-1.640;2023-03-01T05:37:57;10.25;;;8.57;;
74926;SDS011;63488;48.092;-1.640;2023-03-01T05:40:23;9.30;;;8.40;;
74926;SDS011;63488;48.092;-1.640;2023-03-01T05:42:50;9.02;;;8.13;;
74926;SDS011;63488;48.092;-1.640;2023-03-01T05:45:17;9.52;;;8.45;;
74926;SDS011;63488;48.092;-1.640;2023-03-01T05:47:43;9.43;;;8.23;;
74926;SDS011;63488;48.092;-1.640;2023-03-01T05:50:10;9.77;;;8.77;;
74926;SDS011;63488;48.092;-1.640;2023-03-01T05:52:35;9.98;;;8.98;;
74926;SDS011;63488;48.092;-1.640;2023-03-01T05:55:01;9.63;;;8.40;;
74926;SDS011;63488;48.092;-1.640;2023-03-01T05:57:27;10.18;;;9.00;;
74926;SDS011;63488;48.092;-1.640;2023-03-01T05:59:53;10.73;;;9.63;;
74926;SDS011;63488;48.092;-1.640;2023-03-01T06:02:18;9.80;;;8.80;;
74926;SDS011;63488;48.092;-1.640;2023-03-01T06:04:43;12.50;;;9.65;;
74926;SDS011;63488;48.092;-1.640;2023-03-01T06:07:09;11.20;;;9.60;;
74926;SDS011;63488;48.092;-1.640;2023-03-01T06:09:34;11.98;;;9.73;;
74926;SDS011;63488;48.092;-1.640;2023-03-01T06:11:59;10.32;;;9.20;;
74926;SDS011;63488;48.092;-1.640;2023-03-01T06:14:25;10.95;;;9.45;;
74926;SDS011;63488;48.092;-1.640;2023-03-01T06:16:50;9.38;;;8.48;;
74926;SDS011;63488;48.092;-1.640;2023-03-01T06:19:15;9.40;;;8.00;;
74926;SDS011;63488;48.092;-1.640;2023-03-01T06:21:40;9.60;;;8.02;;
74926;SDS011;63488;48.092;-1.640;2023-03-01T06:24:06;12.10;;;8.63;;
74926;SDS011;63488;48.092;-1.640;2023-03-01T06:26:32;9.82;;;8.45;;
74926;SDS011;63488;48.092;-1.640;2023-03-01T06:28:57;9.65;;;8.65;;
74926;SDS011;63488;48.092;-1.640;2023-03-01T06:31:23;7.55;;;6.75;;
74926;SDS011;63488;48.092;-1.640;2023-03-01T06:33:48;8.25;;;7.43;;
74926;SDS011;63488;48.092;-1.640;2023-03-01T06:36:13;10.50;;;8.88;;
74926;SDS011;63488;48.092;-1.640;2023-03-01T06:38:39;9.68;;;8.68;;
74926;SDS011;63488;48.092;-1.640;2023-03-01T06:41:05;9.48;;;8.50;;
74926;SDS011;63488;48.092;-1.640;2023-03-01T06:43:31;12.68;;;8.10;;
74926;SDS011;63488;48.092;-1.640;2023-03-01T06:45:57;10.05;;;8.50;;
74926;SDS011;63488;48.092;-1.640;2023-03-01T06:48:22;8.20;;;7.07;;
74926;SDS011;63488;48.092;-1.640;2023-03-01T06:50:48;9.68;;;7.60;;
74926;SDS011;63488;48.092;-1.640;2023-03-01T06:53:13;10.05;;;7.90;;
74926;SDS011;63488;48.092;-1.640;2023-03-01T06:55:38;8.57;;;7.25;;
74926;SDS011;63488;48.092;-1.640;2023-03-01T06:58:03;8.77;;;7.70;;
74926;SDS011;63488;48.092;-1.640;2023-03-01T07:00:29;9.45;;;8.15;;
74926;SDS011;63488;48.092;-1.640;2023-03-01T07:02:54;8.90;;;7.97;;
74926;SDS011;63488;48.092;-1.640;2023-03-01T07:05:20;8.35;;;7.40;;
74926;SDS011;63488;48.092;-1.640;2023-03-01T07:07:45;10.35;;;7.28;;
74926;SDS011;63488;48.092;-1.640;2023-03-01T07:10:11;8.20;;;7.10;;
74926;SDS011;63488;48.092;-1.640;2023-03-01T07:12:36;10.55;;;8.55;;
74926;SDS011;63488;48.092;-1.640;2023-03-01T07:15:02;8.88;;;7.57;;
74926;SDS011;63488;48.092;-1.640;2023-03-01T07:17:28;10.18;;;8.82;;
74926;SDS011;63488;48.092;-1.640;2023-03-01T07:19:54;12.80;;;9.07;;
74926;SDS011;63488;48.092;-1.640;2023-03-01T07:22:19;10.68;;;9.20;;
74926;SDS011;63488;48.092;-1.640;2023-03-01T07:24:44;10.77;;;9.68;;
74926;SDS011;63488;48.092;-1.640;2023-03-01T07:27:10;11.57;;;9.48;;
74926;SDS011;63488;48.092;-1.640;2023-03-01T07:29:35;10.20;;;9.20;;
74926;SDS011;63488;48.092;-1.640;2023-03-01T07:32:04;10.65;;;9.25;;
74926;SDS011;63488;48.092;-1.640;2023-03-01T07:34:29;11.13;;;9.80;;
74926;SDS011;63488;48.092;-1.640;2023-03-01T07:36:54;10.18;;;9.10;;
74926;SDS011;63488;48.092;-1.640;2023-03-01T07:39:20;10.40;;;8.90;;
74926;SDS011;63488;48.092;-1.640;2023-03-01T07:41:47;11.20;;;10.20;;
74926;SDS011;63488;48.092;-1.640;2023-03-01T07:44:13;10.13;;;8.95;;
74926;SDS011;63488;48.092;-1.640;2023-03-01T07:46:38;11.75;;;10.30;;
74926;SDS011;63488;48.092;-1.640;2023-03-01T07:49:03;12.20;;;9.82;;
74926;SDS011;63488;48.092;-1.640;2023-03-01T07:51:29;11.40;;;10.10;;
74926;SDS011;63488;48.092;-1.640;2023-03-01T07:53:55;11.00;;;9.40;;
74926;SDS011;63488;48.092;-1.640;2023-03-01T07:56:20;10.23;;;9.15;;
74926;SDS011;63488;48.092;-1.640;2023-03-01T07:58:47;10.40;;;9.32;;
74926;SDS011;63488;48.092;-1.640;2023-03-01T08:01:14;10.82;;;9.05;;
74926;SDS011;63488;48.092;-1.640;2023-03-01T08:03:40;10.45;;;9.45;;
74926;SDS011;63488;48.092;-1.640;2023-03-01T08:06:06;11.30;;;9.68;;
74926;SDS011;63488;48.092;-1.640;2023-03-01T08:08:32;12.23;;;9.27;;
74926;SDS011;63488;48.092;-1.640;2023-03-01T08:10:58;10.40;;;9.30;;
74926;SDS011;63488;48.092;-1.640;2023-03-01T08:13:24;10.40;;;9.30;;
74926;SDS011;63488;48.092;-1.640;2023-03-01T08:15:50;12.13;;;8.95;;
74926;SDS011;63488;48.092;-1.640;2023-03-01T08:18:16;9.77;;;8.75;;
74926;SDS011;63488;48.092;-1.640;2023-03-01T08:20:41;11.15;;;9.10;;
74926;SDS011;63488;48.092;-1.640;2023-03-01T08:23:06;10.73;;;8.52;;
74926;SDS011;63488;48.092;-1.640;2023-03-01T08:25:32;12.07;;;9.43;;
74926;SDS011;63488;48.092;-1.640;2023-03-01T08:27:59;9.30;;;8.35;;
74926;SDS011;63488;48.092;-1.640;2023-03-01T08:30:27;10.02;;;8.43;;
74926;SDS011;63488;48.092;-1.640;2023-03-01T08:32:53;10.63;;;8.80;;
74926;SDS011;63488;48.092;-1.640;2023-03-01T08:35:19;10.88;;;9.50;;
74926;SDS011;63488;48.092;-1.640;2023-03-01T08:37:45;9.57;;;8.57;;
74926;SDS011;63488;48.092;-1.640;2023-03-01T08:40:14;9.57;;;8.57;;
74926;SDS011;63488;48.092;-1.640;2023-03-01T08:42:41;9.98;;;8.80;;
74926;SDS011;63488;48.092;-1.640;2023-03-01T08:45:08;10.48;;;8.68;;
74926;SDS011;63488;48.092;-1.640;2023-03-01T08:47:33;10.60;;;8.68;;
74926;SDS011;63488;48.092;-1.640;2023-03-01T08:49:59;9.25;;;8.32;;
74926;SDS011;63488;48.092;-1.640;2023-03-01T08:52:25;11.38;;;8.80;;
74926;SDS011;63488;48.092;-1.640;2023-03-01T08:54:51;9.90;;;8.35;;
74926;SDS011;63488;48.092;-1.640;2023-03-01T08:57:16;12.30;;;8.90;;
74926;SDS011;63488;48.092;-1.640;2023-03-01T08:59:42;11.18;;;8.88;;
74926;SDS011;63488;48.092;-1.640;2023-03-01T09:02:12;10.48;;;9.10;;
74926;SDS011;63488;48.092;-1.640;2023-03-01T09:04:38;10.23;;;9.00;;
74926;SDS011;63488;48.092;-1.640;2023-03-01T09:07:05;10.02;;;8.75;;
74926;SDS011;63488;48.092;-1.640;2023-03-01T09:09:31;10.40;;;9.32;;
74926;SDS011;63488;48.092;-1.640;2023-03-01T09:11:57;10.32;;;9.07;;
74926;SDS011;63488;48.092;-1.640;2023-03-01T09:14:22;12.57;;;8.65;;
74926;SDS011;63488;48.092;-1.640;2023-03-01T09:16:48;12.60;;;8.70;;
74926;SDS011;63488;48.092;-1.640;2023-03-01T09:19:14;12.23;;;9.25;;
74926;SDS011;63488;48.092;-1.640;2023-03-01T09:21:42;10.80;;;9.40;;
74926;SDS011;63488;48.092;-1.640;2023-03-01T09:24:18;10.65;;;9.55;;
74926;SDS011;63488;48.092;-1.640;2023-03-01T09:26:46;10.77;;;9.63;;
74926;SDS011;63488;48.092;-1.640;2023-03-01T09:29:12;10.27;;;9.27;;
74926;SDS011;63488;48.092;-1.640;2023-03-01T09:31:38;9.88;;;8.73;;
74926;SDS011;63488;48.092;-1.640;2023-03-01T09:34:04;10.05;;;9.05;;
74926;SDS011;63488;48.092;-1.640;2023-03-01T09:36:30;10.40;;;8.65;;
74926;SDS011;63488;48.092;-1.640;2023-03-01T09:38:55;10.15;;;9.05;;
74926;SDS011;63488;48.092;-1.640;2023-03-01T09:46:41;11.45;;;10.25;;
74926;SDS011;63488;48.092;-1.640;2023-03-01T09:49:10;10.75;;;9.20;;
74926;SDS011;63488;48.092;-1.640;2023-03-01T09:51:37;11.38;;;8.63;;
74926;SDS011;63488;48.092;-1.640;2023-03-01T09:54:03;11.15;;;8.38;;
74926;SDS011;63488;48.092;-1.640;2023-03-01T09:56:30;12.65;;;9.90;;
74926;SDS011;63488;48.092;-1.640;2023-03-01T10:06:51;12.88;;;10.02;;
74926;SDS011;63488;48.092;-1.640;2023-03-01T10:09:20;15.57;;;10.75;;
74926;SDS011;63488;48.092;-1.640;2023-03-01T10:11:50;14.43;;;9.93;;
74926;SDS011;63488;48.092;-1.640;2023-03-01T10:17:12;13.75;;;9.98;;
74926;SDS011;63488;48.092;-1.640;2023-03-01T10:19:43;13.95;;;9.63;;
74926;SDS011;63488;48.092;-1.640;2023-03-01T10:24:43;12.35;;;9.20;;
74926;SDS011;63488;48.092;-1.640;2023-03-01T10:27:33;11.38;;;10.18;;
74926;SDS011;63488;48.092;-1.640;2023-03-01T10:30:13;13.48;;;10.50;;
74926;SDS011;63488;48.092;-1.640;2023-03-01T10:32:41;11.93;;;9.82;;
74926;SDS011;63488;48.092;-1.640;2023-03-01T10:35:21;10.05;;;7.82;;
74926;SDS011;63488;48.092;-1.640;2023-03-01T10:37:56;12.75;;;9.65;;
74926;SDS011;63488;48.092;-1.640;2023-03-01T10:40:22;13.27;;;10.73;;
74926;SDS011;63488;48.092;-1.640;2023-03-01T10:42:48;12.85;;;10.32;;
74926;SDS011;63488;48.092;-1.640;2023-03-01T10:45:34;14.98;;;10.93;;
74926;SDS011;63488;48.092;-1.640;2023-03-01T10:48:04;12.70;;;10.43;;
74926;SDS011;63488;48.092;-1.640;2023-03-01T10:50:30;15.98;;;10.40;;
74926;SDS011;63488;48.092;-1.640;2023-03-01T10:52:59;15.20;;;11.32;;
74926;SDS011;63488;48.092;-1.640;2023-03-01T10:55:31;13.18;;;10.48;;
74926;SDS011;63488;48.092;-1.640;2023-03-01T10:58:16;11.98;;;7.80;;
74926;SDS011;63488;48.092;-1.640;2023-03-01T11:00:46;14.02;;;10.15;;
74926;SDS011;63488;48.092;-1.640;2023-03-01T11:03:13;14.48;;;11.02;;
74926;SDS011;63488;48.092;-1.640;2023-03-01T11:08:30;13.88;;;12.13;;
74926;SDS011;63488;48.092;-1.640;2023-03-01T11:13:53;12.02;;;9.30;;
74926;SDS011;63488;48.092;-1.640;2023-03-01T11:16:23;14.88;;;11.25;;
74926;SDS011;63488;48.092;-1.640;2023-03-01T11:19:04;14.90;;;12.30;;
74926;SDS011;63488;48.092;-1.640;2023-03-01T11:24:16;14.40;;;12.07;;
74926;SDS011;63488;48.092;-1.640;2023-03-01T11:26:43;15.35;;;12.07;;
74926;SDS011;63488;48.092;-1.640;2023-03-01T11:29:12;13.43;;;12.00;;
74926;SDS011;63488;48.092;-1.640;2023-03-01T11:31:41;15.48;;;13.52;;
74926;SDS011;63488;48.092;-1.640;2023-03-01T11:34:14;14.98;;;13.25;;
74926;SDS011;63488;48.092;-1.640;2023-03-01T11:36:46;14.90;;;12.88;;
74926;SDS011;63488;48.092;-1.640;2023-03-01T11:42:19;19.00;;;13.15;;
74926;SDS011;63488;48.092;-1.640;2023-03-01T11:44:44;15.13;;;12.30;;
74926;SDS011;63488;48.092;-1.640;2023-03-01T11:47:30;11.63;;;9.60;;
74926;SDS011;63488;48.092;-1.640;2023-03-01T11:50:01;16.00;;;11.85;;
74926;SDS011;63488;48.092;-1.640;2023-03-01T12:05:42;13.88;;;10.65;;
74926;SDS011;63488;48.092;-1.640;2023-03-01T12:13:19;12.63;;;11.23;;
74926;SDS011;63488;48.092;-1.640;2023-03-01T12:23:20;12.88;;;11.32;;
74926;SDS011;63488;48.092;-1.640;2023-03-01T12:26:13;12.68;;;11.32;;
74926;SDS011;63488;48.092;-1.640;2023-03-01T12:31:29;11.98;;;10.25;;
74926;SDS011;63488;48.092;-1.640;2023-03-01T12:37:05;12.25;;;10.95;;
74926;SDS011;63488;48.092;-1.640;2023-03-01T12:42:11;14.15;;;12.23;;
74926;SDS011;63488;48.092;-1.640;2023-03-01T12:50:04;12.55;;;11.10;;
74926;SDS011;63488;48.092;-1.640;2023-03-01T12:52:37;12.40;;;11.10;;
74926;SDS011;63488;48.092;-1.640;2023-03-01T12:55:06;14.55;;;10.45;;
74926;SDS011;63488;48.092;-1.640;2023-03-01T12:57:38;11.77;;;9.93;;
74926;SDS011;63488;48.092;-1.640;2023-03-01T13:02:52;10.45;;;9.00;;
74926;SDS011;63488;48.092;-1.640;2023-03-01T13:08:02;11.65;;;9.30;;
74926;SDS011;63488;48.092;-1.640;2023-03-01T13:10:34;10.75;;;9.13;;
74926;SDS011;63488;48.092;-1.640;2023-03-01T13:15:38;10.15;;;8.85;;
74926;SDS011;63488;48.092;-1.640;2023-03-01T13:20:51;8.80;;;7.78;;
74926;SDS011;63488;48.092;-1.640;2023-03-01T13:31:02;8.90;;;7.03;;
74926;SDS011;63488;48.092;-1.640;2023-03-01T13:35:53;10.63;;;6.40;;
74926;SDS011;63488;48.092;-1.640;2023-03-01T13:41:04;8.82;;;7.90;;
74926;SDS011;63488;48.092;-1.640;2023-03-01T13:43:35;9.05;;;6.97;;
74926;SDS011;63488;48.092;-1.640;2023-03-01T13:46:01;7.30;;;6.60;;
74926;SDS011;63488;48.092;-1.640;2023-03-01T13:48:32;7.32;;;6.63;;
74926;SDS011;63488;48.092;-1.640;2023-03-01T13:51:08;7.97;;;6.50;;
74926;SDS011;63488;48.092;-1.640;2023-03-01T13:53:36;8.68;;;6.35;;
74926;SDS011;63488;48.092;-1.640;2023-03-01T13:56:06;8.32;;;6.65;;
74926;SDS011;63488;48.092;-1.640;2023-03-01T13:58:33;7.38;;;6.28;;
74926;SDS011;63488;48.092;-1.640;2023-03-01T14:01:21;7.75;;;6.75;;
74926;SDS011;63488;48.092;-1.640;2023-03-01T14:03:46;6.97;;;6.32;;
74926;SDS011;63488;48.092;-1.640;2023-03-01T14:06:12;8.60;;;5.88;;
74926;SDS011;63488;48.092;-1.640;2023-03-01T14:08:40;7.55;;;6.10;;
74926;SDS011;63488;48.092;-1.640;2023-03-01T14:16:54;6.35;;;5.43;;
74926;SDS011;63488;48.092;-1.640;2023-03-01T14:24:27;6.05;;;5.10;;
74926;SDS011;63488;48.092;-1.640;2023-03-01T14:26:54;5.47;;;4.88;;
74926;SDS011;63488;48.092;-1.640;2023-03-01T14:29:26;7.72;;;5.20;;
74926;SDS011;63488;48.092;-1.640;2023-03-01T14:31:52;6.05;;;4.72;;
74926;SDS011;63488;48.092;-1.640;2023-03-01T14:34:22;7.05;;;5.22;;
74926;SDS011;63488;48.092;-1.640;2023-03-01T14:36:47;5.72;;;5.07;;
74926;SDS011;63488;48.092;-1.640;2023-03-01T14:39:16;7.00;;;5.57;;
74926;SDS011;63488;48.092;-1.640;2023-03-01T14:41:42;7.53;;;5.90;;
74926;SDS011;63488;48.092;-1.640;2023-03-01T14:44:11;7.25;;;6.10;;
74926;SDS011;63488;48.092;-1.640;2023-03-01T14:46:38;8.93;;;6.30;;
74926;SDS011;63488;48.092;-1.640;2023-03-01T14:49:17;6.78;;;5.80;;
74926;SDS011;63488;48.092;-1.640;2023-03-01T14:51:51;7.03;;;6.32;;
74926;SDS011;63488;48.092;-1.640;2023-03-01T14:54:20;7.95;;;6.90;;
74926;SDS011;63488;48.092;-1.640;2023-03-01T14:56:46;8.07;;;6.90;;
74926;SDS011;63488;48.092;-1.640;2023-03-01T14:59:12;9.48;;;7.75;;
74926;SDS011;63488;48.092;-1.640;2023-03-01T15:01:39;7.55;;;6.53;;
74926;SDS011;63488;48.092;-1.640;2023-03-01T15:04:05;8.82;;;7.05;;
74926;SDS011;63488;48.092;-1.640;2023-03-01T15:06:31;9.57;;;8.18;;
74926;SDS011;63488;48.092;-1.640;2023-03-01T15:08:56;10.13;;;7.95;;
74926;SDS011;63488;48.092;-1.640;2023-03-01T15:11:27;9.20;;;8.30;;
74926;SDS011;63488;48.092;-1.640;2023-03-01T15:13:52;10.57;;;8.38;;
74926;SDS011;63488;48.092;-1.640;2023-03-01T15:16:40;9.20;;;8.30;;
74926;SDS011;63488;48.092;-1.640;2023-03-01T15:19:06;9.13;;;7.55;;
74926;SDS011;63488;48.092;-1.640;2023-03-01T15:23:59;10.32;;;8.48;;
74926;SDS011;63488;48.092;-1.640;2023-03-01T15:26:28;9.80;;;8.85;;
74926;SDS011;63488;48.092;-1.640;2023-03-01T15:28:54;9.90;;;8.90;;
74926;SDS011;63488;48.092;-1.640;2023-03-01T15:31:27;10.98;;;8.35;;
74926;SDS011;63488;48.092;-1.640;2023-03-01T15:33:53;11.13;;;8.40;;
74926;SDS011;63488;48.092;-1.640;2023-03-01T15:36:35;10.00;;;8.90;;
74926;SDS011;63488;48.092;-1.640;2023-03-01T15:39:02;11.07;;;9.20;;
74926;SDS011;63488;48.092;-1.640;2023-03-01T15:43:53;10.30;;;9.18;;
74926;SDS011;63488;48.092;-1.640;2023-03-01T15:46:24;10.07;;;9.00;;
74926;SDS011;63488;48.092;-1.640;2023-03-01T15:48:55;10.90;;;9.80;;
74926;SDS011;63488;48.092;-1.640;2023-03-01T15:51:34;9.82;;;8.63;;
74926;SDS011;63488;48.092;-1.640;2023-03-01T15:54:01;11.03;;;9.97;;
74926;SDS011;63488;48.092;-1.640;2023-03-01T15:56:27;12.65;;;9.48;;
74926;SDS011;63488;48.092;-1.640;2023-03-01T15:58:57;12.38;;;10.30;;
74926;SDS011;63488;48.092;-1.640;2023-03-01T16:01:22;12.80;;;10.30;;
74926;SDS011;63488;48.092;-1.640;2023-03-01T16:03:47;12.60;;;11.00;;
74926;SDS011;63488;48.092;-1.640;2023-03-01T16:06:13;12.75;;;11.55;;
74926;SDS011;63488;48.092;-1.640;2023-03-01T16:08:38;13.07;;;11.60;;
74926;SDS011;63488;48.092;-1.640;2023-03-01T16:11:08;13.13;;;11.82;;
74926;SDS011;63488;48.092;-1.640;2023-03-01T16:13:36;13.20;;;11.80;;
74926;SDS011;63488;48.092;-1.640;2023-03-01T16:16:01;12.60;;;11.40;;
74926;SDS011;63488;48.092;-1.640;2023-03-01T16:18:26;12.77;;;11.13;;
74926;SDS011;63488;48.092;-1.640;2023-03-01T16:20:52;13.70;;;11.07;;
74926;SDS011;63488;48.092;-1.640;2023-03-01T16:23:19;13.20;;;10.02;;
74926;SDS011;63488;48.092;-1.640;2023-03-01T16:25:44;12.32;;;11.13;;